sensor_id;sensor_type;location;lat;lon;timestamp;P1;durP1;ratioP1;P2;durP2;ratioP2
47089;SDS011;32840;52.516;13.294;2023-05-21T00:02:11;20.40;;;18.20;;
47089;SDS011;32840;52.516;13.294;2023-05-21T00:04:58;22.45;;;18.17;;
47089;SDS011;32840;52.516;13.294;2023-05-21T00:07:43;23.48;;;17.88;;
47089;SDS011;32840;52.516;13.294;2023-05-21T00:10:30;23.40;;;18.52;;
47089;SDS011;32840;52.516;13.294;2023-05-21T00:13:15;19.40;;;17.23;;
47089;SDS011;32840;52.516;13.294;2023-05-21T00:16:00;22.35;;;19.65;;
47089;SDS011;32840;52.516;13.294;2023-05-21T00:18:44;25.00;;;17.70;;
47089;SDS011;32840;52.516;13.294;2023-05-21T00:21:30;23.73;;;18.67;;
47089;SDS011;32840;52.516;13.294;2023-05-21T00:24:15;25.90;;;18.73;;
47089;SDS011;32840;52.516;13.294;2023-05-21T00:27:00;22.02;;;18.05;;
47089;SDS011;32840;52.516;13.294;2023-05-21T00:29:45;24.33;;;19.85;;
47089;SDS011;32840;52.516;13.294;2023-05-21T00:32:30;22.50;;;18.63;;
47089;SDS011;32840;52.516;13.294;2023-05-21T00:35:15;23.95;;;19.13;;
47089;SDS011;32840;52.516;13.294;2023-05-21T00:38:00;24.83;;;20.00;;
47089;SDS011;32840;52.516;13.294;2023-05-21T00:40:45;24.38;;;19.83;;
47089;SDS011;32840;52.516;13.294;2023-05-21T00:43:30;23.88;;;18.98;;
47089;SDS011;32840;52.516;13.294;2023-05-21T00:46:17;30.50;;;19.10;;
47089;SDS011;32840;52.516;13.294;2023-05-21T00:49:03;23.02;;;20.00;;
47089;SDS011;32840;52.516;13.294;2023-05-21T00:51:48;21.10;;;18.33;;
47089;SDS011;32840;52.516;13.294;2023-05-21T00:54:33;25.17;;;19.08;;
47089;SDS011;32840;52.516;13.294;2023-05-21T00:57:18;23.85;;;18.58;;
47089;SDS011;32840;52.516;13.294;2023-05-21T01:00:05;25.80;;;20.20;;
47089;SDS011;32840;52.516;13.294;2023-05-21T01:02:51;22.48;;;18.65;;
47089;SDS011;32840;52.516;13.294;2023-05-21T01:05:36;20.77;;;18.52;;
47089;SDS011;32840;52.516;13.294;2023-05-21T01:08:21;22.08;;;17.85;;
47089;SDS011;32840;52.516;13.294;2023-05-21T01:11:06;22.67;;;18.75;;
47089;SDS011;32840;52.516;13.294;2023-05-21T01:13:52;21.85;;;18.70;;
47089;SDS011;32840;52.516;13.294;2023-05-21T01:16:37;22.98;;;18.75;;
47089;SDS011;32840;52.516;13.294;2023-05-21T01:19:24;27.00;;;19.42;;
47089;SDS011;32840;52.516;13.294;2023-05-21T01:22:08;24.65;;;19.17;;
47089;SDS011;32840;52.516;13.294;2023-05-21T01:24:57;26.75;;;20.42;;
47089;SDS011;32840;52.516;13.294;2023-05-21T01:27:42;29.45;;;19.58;;
47089;SDS011;32840;52.516;13.294;2023-05-21T01:30:28;22.40;;;18.77;;
47089;SDS011;32840;52.516;13.294;2023-05-21T01:33:32;23.58;;;18.13;;
47089;SDS011;32840;52.516;13.294;2023-05-21T01:36:23;24.30;;;19.27;;
47089;SDS011;32840;52.516;13.294;2023-05-21T01:39:14;21.88;;;18.73;;
47089;SDS011;32840;52.516;13.294;2023-05-21T01:42:05;22.23;;;18.20;;
47089;SDS011;32840;52.516;13.294;2023-05-21T01:44:54;22.65;;;18.95;;
47089;SDS011;32840;52.516;13.294;2023-05-21T01:47:40;24.23;;;19.50;;
47089;SDS011;32840;52.516;13.294;2023-05-21T01:50:26;27.73;;;19.10;;
47089;SDS011;32840;52.516;13.294;2023-05-21T01:53:12;26.05;;;19.10;;
47089;SDS011;32840;52.516;13.294;2023-05-21T01:55:58;22.67;;;18.70;;
47089;SDS011;32840;52.516;13.294;2023-05-21T01:58:43;23.25;;;20.23;;
47089;SDS011;32840;52.516;13.294;2023-05-21T02:01:28;26.65;;;19.25;;
47089;SDS011;32840;52.516;13.294;2023-05-21T02:04:13;25.13;;;19.92;;
47089;SDS011;32840;52.516;13.294;2023-05-21T02:06:58;26.17;;;20.48;;
47089;SDS011;32840;52.516;13.294;2023-05-21T02:09:43;24.33;;;21.10;;
47089;SDS011;32840;52.516;13.294;2023-05-21T02:12:28;25.25;;;20.25;;
47089;SDS011;32840;52.516;13.294;2023-05-21T02:15:13;23.17;;;19.55;;
47089;SDS011;32840;52.516;13.294;2023-05-21T02:17:58;25.33;;;20.58;;
47089;SDS011;32840;52.516;13.294;2023-05-21T02:20:43;25.63;;;21.10;;
47089;SDS011;32840;52.516;13.294;2023-05-21T02:23:27;26.33;;;21.55;;
47089;SDS011;32840;52.516;13.294;2023-05-21T02:26:12;25.92;;;20.98;;
47089;SDS011;32840;52.516;13.294;2023-05-21T02:28:57;25.98;;;22.00;;
47089;SDS011;32840;52.516;13.294;2023-05-21T02:31:42;25.88;;;21.60;;
47089;SDS011;32840;52.516;13.294;2023-05-21T02:34:27;24.60;;;21.08;;
47089;SDS011;32840;52.516;13.294;2023-05-21T02:37:15;27.75;;;22.85;;
47089;SDS011;32840;52.516;13.294;2023-05-21T02:40:02;25.40;;;22.38;;
47089;SDS011;32840;52.516;13.294;2023-05-21T02:42:49;27.38;;;22.02;;
47089;SDS011;32840;52.516;13.294;2023-05-21T02:45:33;24.17;;;20.80;;
47089;SDS011;32840;52.516;13.294;2023-05-21T02:48:18;27.52;;;21.92;;
47089;SDS011;32840;52.516;13.294;2023-05-21T02:51:03;25.95;;;22.50;;
47089;SDS011;32840;52.516;13.294;2023-05-21T02:53:48;28.25;;;23.15;;
47089;SDS011;32840;52.516;13.294;2023-05-21T02:56:33;28.15;;;22.27;;
47089;SDS011;32840;52.516;13.294;2023-05-21T02:59:18;29.17;;;23.52;;
47089;SDS011;32840;52.516;13.294;2023-05-21T03:02:03;28.98;;;23.63;;
47089;SDS011;32840;52.516;13.294;2023-05-21T03:04:48;27.60;;;22.40;;
47089;SDS011;32840;52.516;13.294;2023-05-21T03:07:34;26.23;;;23.27;;
47089;SDS011;32840;52.516;13.294;2023-05-21T03:10:19;26.27;;;23.38;;
47089;SDS011;32840;52.516;13.294;2023-05-21T03:13:04;27.52;;;23.33;;
47089;SDS011;32840;52.516;13.294;2023-05-21T03:15:49;26.38;;;23.50;;
47089;SDS011;32840;52.516;13.294;2023-05-21T03:18:39;27.77;;;23.85;;
47089;SDS011;32840;52.516;13.294;2023-05-21T03:21:24;31.23;;;24.42;;
47089;SDS011;32840;52.516;13.294;2023-05-21T03:24:09;29.08;;;23.58;;
47089;SDS011;32840;52.516;13.294;2023-05-21T03:26:56;29.35;;;24.83;;
47089;SDS011;32840;52.516;13.294;2023-05-21T03:29:44;28.63;;;25.35;;
47089;SDS011;32840;52.516;13.294;2023-05-21T03:32:28;26.60;;;23.80;;
47089;SDS011;32840;52.516;13.294;2023-05-21T03:35:14;31.15;;;25.05;;
47089;SDS011;32840;52.516;13.294;2023-05-21T03:37:58;32.17;;;25.95;;
47089;SDS011;32840;52.516;13.294;2023-05-21T03:40:43;30.17;;;23.98;;
47089;SDS011;32840;52.516;13.294;2023-05-21T03:43:28;31.55;;;24.27;;
47089;SDS011;32840;52.516;13.294;2023-05-21T03:46:13;31.17;;;24.75;;
47089;SDS011;32840;52.516;13.294;2023-05-21T03:48:58;34.00;;;25.80;;
47089;SDS011;32840;52.516;13.294;2023-05-21T03:51:43;31.45;;;25.40;;
47089;SDS011;32840;52.516;13.294;2023-05-21T03:54:28;30.20;;;26.20;;
47089;SDS011;32840;52.516;13.294;2023-05-21T03:57:13;33.38;;;25.52;;
47089;SDS011;32840;52.516;13.294;2023-05-21T03:59:59;28.63;;;24.33;;
47089;SDS011;32840;52.516;13.294;2023-05-21T04:02:44;27.95;;;23.80;;
47089;SDS011;32840;52.516;13.294;2023-05-21T04:05:29;28.83;;;25.35;;
47089;SDS011;32840;52.516;13.294;2023-05-21T04:08:14;31.05;;;26.35;;
47089;SDS011;32840;52.516;13.294;2023-05-21T04:10:59;31.77;;;25.65;;
47089;SDS011;32840;52.516;13.294;2023-05-21T04:13:44;30.98;;;24.88;;
47089;SDS011;32840;52.516;13.294;2023-05-21T04:16:29;29.33;;;25.90;;
47089;SDS011;32840;52.516;13.294;2023-05-21T04:19:14;29.58;;;25.33;;
47089;SDS011;32840;52.516;13.294;2023-05-21T04:21:58;28.63;;;25.50;;
47089;SDS011;32840;52.516;13.294;2023-05-21T04:24:44;31.45;;;26.33;;
47089;SDS011;32840;52.516;13.294;2023-05-21T04:27:29;28.65;;;25.15;;
47089;SDS011;32840;52.516;13.294;2023-05-21T04:30:14;33.50;;;25.65;;
47089;SDS011;32840;52.516;13.294;2023-05-21T04:32:59;31.52;;;25.88;;
47089;SDS011;32840;52.516;13.294;2023-05-21T04:35:45;32.42;;;26.10;;
47089;SDS011;32840;52.516;13.294;2023-05-21T04:38:32;30.25;;;24.70;;
47089;SDS011;32840;52.516;13.294;2023-05-21T04:41:17;33.42;;;25.75;;
47089;SDS011;32840;52.516;13.294;2023-05-21T04:44:06;29.77;;;25.02;;
47089;SDS011;32840;52.516;13.294;2023-05-21T04:46:51;35.72;;;26.67;;
47089;SDS011;32840;52.516;13.294;2023-05-21T04:49:37;28.35;;;24.83;;
47089;SDS011;32840;52.516;13.294;2023-05-21T04:52:22;32.38;;;26.48;;
47089;SDS011;32840;52.516;13.294;2023-05-21T04:55:08;29.98;;;26.77;;
47089;SDS011;32840;52.516;13.294;2023-05-21T04:57:53;30.38;;;25.98;;
47089;SDS011;32840;52.516;13.294;2023-05-21T05:00:38;29.40;;;25.85;;
47089;SDS011;32840;52.516;13.294;2023-05-21T05:03:25;30.02;;;25.83;;
47089;SDS011;32840;52.516;13.294;2023-05-21T05:06:10;31.17;;;27.10;;
47089;SDS011;32840;52.516;13.294;2023-05-21T05:08:55;30.20;;;26.98;;
47089;SDS011;32840;52.516;13.294;2023-05-21T05:11:40;30.88;;;25.88;;
47089;SDS011;32840;52.516;13.294;2023-05-21T05:14:25;29.23;;;25.75;;
47089;SDS011;32840;52.516;13.294;2023-05-21T05:17:10;32.78;;;25.30;;
47089;SDS011;32840;52.516;13.294;2023-05-21T05:19:57;29.20;;;25.95;;
47089;SDS011;32840;52.516;13.294;2023-05-21T05:22:42;28.63;;;24.95;;
47089;SDS011;32840;52.516;13.294;2023-05-21T05:25:28;30.33;;;25.63;;
47089;SDS011;32840;52.516;13.294;2023-05-21T05:28:13;30.85;;;25.52;;
47089;SDS011;32840;52.516;13.294;2023-05-21T05:30:58;30.58;;;25.98;;
47089;SDS011;32840;52.516;13.294;2023-05-21T05:33:43;28.98;;;23.30;;
47089;SDS011;32840;52.516;13.294;2023-05-21T05:36:28;27.48;;;23.83;;
47089;SDS011;32840;52.516;13.294;2023-05-21T05:39:13;27.75;;;24.15;;
47089;SDS011;32840;52.516;13.294;2023-05-21T05:41:58;28.63;;;24.45;;
47089;SDS011;32840;52.516;13.294;2023-05-21T05:44:43;28.67;;;25.40;;
47089;SDS011;32840;52.516;13.294;2023-05-21T05:47:28;28.23;;;24.10;;
47089;SDS011;32840;52.516;13.294;2023-05-21T05:50:13;28.08;;;24.70;;
47089;SDS011;32840;52.516;13.294;2023-05-21T05:52:58;25.75;;;23.05;;
47089;SDS011;32840;52.516;13.294;2023-05-21T05:55:43;31.10;;;23.33;;
47089;SDS011;32840;52.516;13.294;2023-05-21T05:58:28;27.35;;;23.67;;
47089;SDS011;32840;52.516;13.294;2023-05-21T06:01:14;29.60;;;22.67;;
47089;SDS011;32840;52.516;13.294;2023-05-21T06:03:59;28.05;;;23.30;;
47089;SDS011;32840;52.516;13.294;2023-05-21T06:06:45;27.10;;;23.30;;
47089;SDS011;32840;52.516;13.294;2023-05-21T06:09:30;25.10;;;22.40;;
47089;SDS011;32840;52.516;13.294;2023-05-21T06:12:15;27.63;;;21.48;;
47089;SDS011;32840;52.516;13.294;2023-05-21T06:15:00;27.35;;;22.15;;
47089;SDS011;32840;52.516;13.294;2023-05-21T06:17:46;29.38;;;22.35;;
47089;SDS011;32840;52.516;13.294;2023-05-21T06:20:31;27.40;;;22.13;;
47089;SDS011;32840;52.516;13.294;2023-05-21T06:23:16;25.98;;;22.00;;
47089;SDS011;32840;52.516;13.294;2023-05-21T06:26:01;23.58;;;21.17;;
47089;SDS011;32840;52.516;13.294;2023-05-21T06:28:46;25.77;;;22.48;;
47089;SDS011;32840;52.516;13.294;2023-05-21T06:31:31;26.63;;;21.85;;
47089;SDS011;32840;52.516;13.294;2023-05-21T06:34:16;29.35;;;21.98;;
47089;SDS011;32840;52.516;13.294;2023-05-21T06:37:01;25.38;;;22.48;;
47089;SDS011;32840;52.516;13.294;2023-05-21T06:39:46;24.85;;;21.70;;
47089;SDS011;32840;52.516;13.294;2023-05-21T06:42:31;24.15;;;21.58;;
47089;SDS011;32840;52.516;13.294;2023-05-21T06:45:16;24.25;;;20.98;;
47089;SDS011;32840;52.516;13.294;2023-05-21T06:48:01;23.65;;;21.17;;
47089;SDS011;32840;52.516;13.294;2023-05-21T06:50:46;22.67;;;19.88;;
47089;SDS011;32840;52.516;13.294;2023-05-21T06:53:31;25.05;;;21.02;;
47089;SDS011;32840;52.516;13.294;2023-05-21T06:56:16;25.15;;;20.77;;
47089;SDS011;32840;52.516;13.294;2023-05-21T06:59:01;24.63;;;21.83;;
47089;SDS011;32840;52.516;13.294;2023-05-21T07:01:45;23.40;;;20.90;;
47089;SDS011;32840;52.516;13.294;2023-05-21T07:04:30;23.58;;;19.80;;
47089;SDS011;32840;52.516;13.294;2023-05-21T07:07:15;23.38;;;19.92;;
47089;SDS011;32840;52.516;13.294;2023-05-21T07:10:00;22.00;;;19.63;;
47089;SDS011;32840;52.516;13.294;2023-05-21T07:12:45;21.50;;;19.00;;
47089;SDS011;32840;52.516;13.294;2023-05-21T07:15:30;23.73;;;20.27;;
47089;SDS011;32840;52.516;13.294;2023-05-21T07:18:15;22.88;;;19.00;;
47089;SDS011;32840;52.516;13.294;2023-05-21T07:20:59;21.92;;;19.63;;
47089;SDS011;32840;52.516;13.294;2023-05-21T07:23:44;21.58;;;19.33;;
47089;SDS011;32840;52.516;13.294;2023-05-21T07:26:29;21.05;;;18.80;;
47089;SDS011;32840;52.516;13.294;2023-05-21T07:29:14;22.42;;;18.20;;
47089;SDS011;32840;52.516;13.294;2023-05-21T07:31:59;22.45;;;18.10;;
47089;SDS011;32840;52.516;13.294;2023-05-21T07:34:44;19.52;;;17.50;;
47089;SDS011;32840;52.516;13.294;2023-05-21T07:37:30;19.10;;;17.08;;
47089;SDS011;32840;52.516;13.294;2023-05-21T07:40:15;19.17;;;16.13;;
47089;SDS011;32840;52.516;13.294;2023-05-21T07:43:00;21.02;;;16.42;;
47089;SDS011;32840;52.516;13.294;2023-05-21T07:45:45;21.75;;;16.75;;
47089;SDS011;32840;52.516;13.294;2023-05-21T07:48:30;18.63;;;16.25;;
47089;SDS011;32840;52.516;13.294;2023-05-21T07:51:14;22.42;;;16.13;;
47089;SDS011;32840;52.516;13.294;2023-05-21T07:54:00;17.65;;;15.75;;
47089;SDS011;32840;52.516;13.294;2023-05-21T07:56:44;19.95;;;15.52;;
47089;SDS011;32840;52.516;13.294;2023-05-21T07:59:29;17.27;;;15.48;;
47089;SDS011;32840;52.516;13.294;2023-05-21T08:02:14;19.67;;;15.10;;
47089;SDS011;32840;52.516;13.294;2023-05-21T08:04:59;18.25;;;15.10;;
47089;SDS011;32840;52.516;13.294;2023-05-21T08:07:47;18.70;;;14.98;;
47089;SDS011;32840;52.516;13.294;2023-05-21T08:10:31;15.82;;;14.07;;
47089;SDS011;32840;52.516;13.294;2023-05-21T08:13:17;15.82;;;14.23;;
47089;SDS011;32840;52.516;13.294;2023-05-21T08:16:01;16.17;;;14.48;;
47089;SDS011;32840;52.516;13.294;2023-05-21T08:18:46;17.20;;;14.68;;
47089;SDS011;32840;52.516;13.294;2023-05-21T08:21:31;23.33;;;14.43;;
47089;SDS011;32840;52.516;13.294;2023-05-21T08:24:17;14.90;;;13.27;;
47089;SDS011;32840;52.516;13.294;2023-05-21T08:27:02;16.70;;;13.73;;
47089;SDS011;32840;52.516;13.294;2023-05-21T08:29:47;16.50;;;12.88;;
47089;SDS011;32840;52.516;13.294;2023-05-21T08:32:32;13.68;;;12.13;;
47089;SDS011;32840;52.516;13.294;2023-05-21T08:35:17;17.38;;;14.48;;
47089;SDS011;32840;52.516;13.294;2023-05-21T08:38:02;15.18;;;12.02;;
47089;SDS011;32840;52.516;13.294;2023-05-21T08:40:46;14.05;;;12.48;;
47089;SDS011;32840;52.516;13.294;2023-05-21T08:43:34;14.48;;;12.38;;
47089;SDS011;32840;52.516;13.294;2023-05-21T08:46:21;14.75;;;12.88;;
47089;SDS011;32840;52.516;13.294;2023-05-21T08:49:09;13.85;;;12.32;;
47089;SDS011;32840;52.516;13.294;2023-05-21T08:51:57;15.67;;;12.20;;
47089;SDS011;32840;52.516;13.294;2023-05-21T08:54:43;12.35;;;11.10;;
47089;SDS011;32840;52.516;13.294;2023-05-21T08:57:29;15.60;;;11.48;;
47089;SDS011;32840;52.516;13.294;2023-05-21T09:00:15;12.77;;;11.35;;
47089;SDS011;32840;52.516;13.294;2023-05-21T09:03:00;12.32;;;10.90;;
47089;SDS011;32840;52.516;13.294;2023-05-21T09:05:45;14.50;;;11.73;;
47089;SDS011;32840;52.516;13.294;2023-05-21T09:08:31;21.48;;;11.57;;
47089;SDS011;32840;52.516;13.294;2023-05-21T09:11:19;15.70;;;11.60;;
47089;SDS011;32840;52.516;13.294;2023-05-21T09:14:04;19.83;;;10.35;;
47089;SDS011;32840;52.516;13.294;2023-05-21T09:16:50;14.18;;;11.38;;
47089;SDS011;32840;52.516;13.294;2023-05-21T09:19:34;12.43;;;11.20;;
47089;SDS011;32840;52.516;13.294;2023-05-21T09:22:22;15.68;;;11.88;;
47089;SDS011;32840;52.516;13.294;2023-05-21T09:25:06;12.77;;;10.70;;
47089;SDS011;32840;52.516;13.294;2023-05-21T09:27:54;14.77;;;10.63;;
47089;SDS011;32840;52.516;13.294;2023-05-21T09:30:46;12.98;;;10.20;;
47089;SDS011;32840;52.516;13.294;2023-05-21T09:33:32;13.88;;;10.27;;
47089;SDS011;32840;52.516;13.294;2023-05-21T09:36:18;12.55;;;11.25;;
47089;SDS011;32840;52.516;13.294;2023-05-21T09:39:03;13.57;;;10.50;;
47089;SDS011;32840;52.516;13.294;2023-05-21T09:41:48;13.38;;;10.32;;
47089;SDS011;32840;52.516;13.294;2023-05-21T09:44:33;10.93;;;9.68;;
47089;SDS011;32840;52.516;13.294;2023-05-21T09:47:18;12.98;;;10.07;;
47089;SDS011;32840;52.516;13.294;2023-05-21T09:50:04;11.73;;;10.38;;
47089;SDS011;32840;52.516;13.294;2023-05-21T09:52:50;15.45;;;10.20;;
47089;SDS011;32840;52.516;13.294;2023-05-21T09:55:38;10.93;;;9.50;;
47089;SDS011;32840;52.516;13.294;2023-05-21T09:58:24;16.92;;;9.60;;
47089;SDS011;32840;52.516;13.294;2023-05-21T10:01:09;11.38;;;8.75;;
47089;SDS011;32840;52.516;13.294;2023-05-21T10:03:55;10.48;;;9.32;;
47089;SDS011;32840;52.516;13.294;2023-05-21T10:06:43;9.38;;;8.38;;
47089;SDS011;32840;52.516;13.294;2023-05-21T10:09:30;10.75;;;8.95;;
47089;SDS011;32840;52.516;13.294;2023-05-21T10:12:16;12.35;;;9.07;;
47089;SDS011;32840;52.516;13.294;2023-05-21T10:15:02;9.48;;;8.13;;
47089;SDS011;32840;52.516;13.294;2023-05-21T10:17:48;13.80;;;8.30;;
47089;SDS011;32840;52.516;13.294;2023-05-21T10:20:34;10.38;;;8.45;;
47089;SDS011;32840;52.516;13.294;2023-05-21T10:23:19;12.90;;;9.18;;
47089;SDS011;32840;52.516;13.294;2023-05-21T10:26:06;9.45;;;8.52;;
47089;SDS011;32840;52.516;13.294;2023-05-21T10:28:52;10.60;;;9.02;;
47089;SDS011;32840;52.516;13.294;2023-05-21T10:31:39;10.60;;;8.80;;
47089;SDS011;32840;52.516;13.294;2023-05-21T10:34:29;11.13;;;8.88;;
47089;SDS011;32840;52.516;13.294;2023-05-21T10:37:15;10.18;;;8.45;;
47089;SDS011;32840;52.516;13.294;2023-05-21T10:40:00;11.20;;;8.50;;
47089;SDS011;32840;52.516;13.294;2023-05-21T10:46:04;11.15;;;8.85;;
47089;SDS011;32840;52.516;13.294;2023-05-21T11:01:04;12.75;;;8.73;;
47089;SDS011;32840;52.516;13.294;2023-05-21T11:03:50;11.23;;;8.32;;
47089;SDS011;32840;52.516;13.294;2023-05-21T11:06:35;12.00;;;8.68;;
47089;SDS011;32840;52.516;13.294;2023-05-21T11:09:20;11.32;;;8.52;;
47089;SDS011;32840;52.516;13.294;2023-05-21T11:12:05;11.68;;;8.25;;
47089;SDS011;32840;52.516;13.294;2023-05-21T11:14:56;20.02;;;8.70;;
47089;SDS011;32840;52.516;13.294;2023-05-21T11:17:41;10.00;;;8.30;;
47089;SDS011;32840;52.516;13.294;2023-05-21T11:20:32;9.90;;;8.02;;
47089;SDS011;32840;52.516;13.294;2023-05-21T11:23:17;16.58;;;7.50;;
47089;SDS011;32840;52.516;13.294;2023-05-21T11:26:05;8.38;;;7.13;;
47089;SDS011;32840;52.516;13.294;2023-05-21T11:29:09;8.20;;;7.40;;
47089;SDS011;32840;52.516;13.294;2023-05-21T11:31:58;11.98;;;7.85;;
47089;SDS011;32840;52.516;13.294;2023-05-21T11:34:46;11.10;;;7.47;;
47089;SDS011;32840;52.516;13.294;2023-05-21T11:37:32;10.48;;;7.15;;
47089;SDS011;32840;52.516;13.294;2023-05-21T11:40:18;9.50;;;7.13;;
47089;SDS011;32840;52.516;13.294;2023-05-21T11:43:06;14.40;;;8.45;;
47089;SDS011;32840;52.516;13.294;2023-05-21T11:45:51;11.75;;;7.90;;
47089;SDS011;32840;52.516;13.294;2023-05-21T11:48:36;10.90;;;7.85;;
47089;SDS011;32840;52.516;13.294;2023-05-21T11:51:21;8.45;;;7.00;;
47089;SDS011;32840;52.516;13.294;2023-05-21T11:54:08;13.25;;;7.32;;
47089;SDS011;32840;52.516;13.294;2023-05-21T11:56:53;9.88;;;7.15;;
47089;SDS011;32840;52.516;13.294;2023-05-21T11:59:38;15.35;;;9.82;;
47089;SDS011;32840;52.516;13.294;2023-05-21T12:02:24;10.82;;;7.05;;
47089;SDS011;32840;52.516;13.294;2023-05-21T12:05:12;10.15;;;7.10;;
47089;SDS011;32840;52.516;13.294;2023-05-21T12:07:57;9.38;;;6.97;;
47089;SDS011;32840;52.516;13.294;2023-05-21T12:10:42;9.32;;;6.72;;
47089;SDS011;32840;52.516;13.294;2023-05-21T12:13:27;9.00;;;6.93;;
47089;SDS011;32840;52.516;13.294;2023-05-21T12:16:12;10.02;;;7.13;;
47089;SDS011;32840;52.516;13.294;2023-05-21T12:18:57;8.82;;;6.32;;
47089;SDS011;32840;52.516;13.294;2023-05-21T12:21:42;9.43;;;6.78;;
47089;SDS011;32840;52.516;13.294;2023-05-21T12:24:28;8.07;;;7.22;;
47089;SDS011;32840;52.516;13.294;2023-05-21T12:27:14;10.60;;;7.47;;
47089;SDS011;32840;52.516;13.294;2023-05-21T12:30:00;11.38;;;6.75;;
47089;SDS011;32840;52.516;13.294;2023-05-21T12:32:45;7.85;;;7.05;;
47089;SDS011;32840;52.516;13.294;2023-05-21T12:35:30;8.15;;;7.00;;
47089;SDS011;32840;52.516;13.294;2023-05-21T12:38:15;8.05;;;7.15;;
47089;SDS011;32840;52.516;13.294;2023-05-21T12:41:03;7.88;;;7.07;;
47089;SDS011;32840;52.516;13.294;2023-05-21T12:43:49;9.63;;;6.72;;
47089;SDS011;32840;52.516;13.294;2023-05-21T12:46:34;12.48;;;6.60;;
47089;SDS011;32840;52.516;13.294;2023-05-21T12:49:36;9.93;;;6.63;;
47089;SDS011;32840;52.516;13.294;2023-05-21T12:52:25;7.97;;;6.47;;
47089;SDS011;32840;52.516;13.294;2023-05-21T12:55:14;12.75;;;6.78;;
47089;SDS011;32840;52.516;13.294;2023-05-21T12:58:04;8.43;;;6.78;;
47089;SDS011;32840;52.516;13.294;2023-05-21T13:00:53;9.40;;;6.45;;
47089;SDS011;32840;52.516;13.294;2023-05-21T13:03:42;8.20;;;6.78;;
47089;SDS011;32840;52.516;13.294;2023-05-21T13:06:28;10.88;;;6.97;;
47089;SDS011;32840;52.516;13.294;2023-05-21T13:09:14;13.63;;;6.85;;
47089;SDS011;32840;52.516;13.294;2023-05-21T13:11:59;8.60;;;6.22;;
47089;SDS011;32840;52.516;13.294;2023-05-21T13:14:45;10.35;;;6.25;;
47089;SDS011;32840;52.516;13.294;2023-05-21T13:17:30;11.52;;;7.32;;
47089;SDS011;32840;52.516;13.294;2023-05-21T13:20:15;9.32;;;6.85;;
47089;SDS011;32840;52.516;13.294;2023-05-21T13:23:04;12.20;;;6.25;;
47089;SDS011;32840;52.516;13.294;2023-05-21T13:25:49;10.30;;;6.20;;
47089;SDS011;32840;52.516;13.294;2023-05-21T13:28:34;10.80;;;6.40;;
47089;SDS011;32840;52.516;13.294;2023-05-21T13:31:19;8.23;;;6.60;;
47089;SDS011;32840;52.516;13.294;2023-05-21T13:34:04;8.38;;;6.50;;
47089;SDS011;32840;52.516;13.294;2023-05-21T13:36:50;9.82;;;7.63;;
47089;SDS011;32840;52.516;13.294;2023-05-21T13:39:35;10.13;;;7.03;;
47089;SDS011;32840;52.516;13.294;2023-05-21T13:42:20;17.13;;;7.05;;
47089;SDS011;32840;52.516;13.294;2023-05-21T13:45:07;12.68;;;7.65;;
47089;SDS011;32840;52.516;13.294;2023-05-21T13:47:53;11.00;;;6.80;;
47089;SDS011;32840;52.516;13.294;2023-05-21T13:50:39;11.02;;;7.32;;
47089;SDS011;32840;52.516;13.294;2023-05-21T13:53:24;10.55;;;7.05;;
47089;SDS011;32840;52.516;13.294;2023-05-21T13:56:08;10.55;;;7.03;;
47089;SDS011;32840;52.516;13.294;2023-05-21T13:58:53;10.30;;;7.13;;
47089;SDS011;32840;52.516;13.294;2023-05-21T14:01:38;8.93;;;6.53;;
47089;SDS011;32840;52.516;13.294;2023-05-21T14:04:23;10.90;;;6.78;;
47089;SDS011;32840;52.516;13.294;2023-05-21T14:07:08;10.55;;;6.45;;
47089;SDS011;32840;52.516;13.294;2023-05-21T14:09:54;11.55;;;6.63;;
47089;SDS011;32840;52.516;13.294;2023-05-21T14:12:39;11.80;;;7.28;;
47089;SDS011;32840;52.516;13.294;2023-05-21T14:15:24;13.55;;;6.80;;
47089;SDS011;32840;52.516;13.294;2023-05-21T14:18:09;15.38;;;6.63;;
47089;SDS011;32840;52.516;13.294;2023-05-21T14:20:55;9.60;;;6.00;;
47089;SDS011;32840;52.516;13.294;2023-05-21T14:23:40;10.88;;;6.80;;
47089;SDS011;32840;52.516;13.294;2023-05-21T14:26:25;9.00;;;5.82;;
47089;SDS011;32840;52.516;13.294;2023-05-21T14:29:10;10.35;;;6.63;;
47089;SDS011;32840;52.516;13.294;2023-05-21T14:31:55;8.05;;;5.78;;
47089;SDS011;32840;52.516;13.294;2023-05-21T14:34:40;7.20;;;6.50;;
47089;SDS011;32840;52.516;13.294;2023-05-21T14:37:25;9.48;;;6.97;;
47089;SDS011;32840;52.516;13.294;2023-05-21T14:40:10;8.68;;;6.50;;
47089;SDS011;32840;52.516;13.294;2023-05-21T14:42:56;8.43;;;6.47;;
47089;SDS011;32840;52.516;13.294;2023-05-21T14:45:41;11.18;;;6.28;;
47089;SDS011;32840;52.516;13.294;2023-05-21T14:48:25;8.02;;;6.18;;
47089;SDS011;32840;52.516;13.294;2023-05-21T14:51:10;9.77;;;6.25;;
47089;SDS011;32840;52.516;13.294;2023-05-21T14:53:56;7.55;;;6.30;;
47089;SDS011;32840;52.516;13.294;2023-05-21T14:56:41;10.93;;;6.25;;
47089;SDS011;32840;52.516;13.294;2023-05-21T14:59:26;11.05;;;6.15;;
47089;SDS011;32840;52.516;13.294;2023-05-21T15:02:11;10.68;;;6.10;;
47089;SDS011;32840;52.516;13.294;2023-05-21T15:04:56;9.88;;;6.25;;
47089;SDS011;32840;52.516;13.294;2023-05-21T15:07:40;11.65;;;5.75;;
47089;SDS011;32840;52.516;13.294;2023-05-21T15:10:26;8.82;;;6.20;;
47089;SDS011;32840;52.516;13.294;2023-05-21T15:13:11;8.32;;;6.20;;
47089;SDS011;32840;52.516;13.294;2023-05-21T15:15:56;13.73;;;6.53;;
47089;SDS011;32840;52.516;13.294;2023-05-21T15:18:41;10.18;;;6.05;;
47089;SDS011;32840;52.516;13.294;2023-05-21T15:21:26;8.35;;;5.55;;
47089;SDS011;32840;52.516;13.294;2023-05-21T15:24:11;11.35;;;5.85;;
47089;SDS011;32840;52.516;13.294;2023-05-21T15:26:56;9.02;;;5.70;;
47089;SDS011;32840;52.516;13.294;2023-05-21T15:29:41;12.23;;;5.80;;
47089;SDS011;32840;52.516;13.294;2023-05-21T15:32:29;7.78;;;6.35;;
47089;SDS011;32840;52.516;13.294;2023-05-21T15:35:14;8.60;;;5.45;;
47089;SDS011;32840;52.516;13.294;2023-05-21T15:37:59;9.40;;;5.63;;
47089;SDS011;32840;52.516;13.294;2023-05-21T15:40:44;25.42;;;6.18;;
47089;SDS011;32840;52.516;13.294;2023-05-21T15:43:30;9.32;;;6.03;;
47089;SDS011;32840;52.516;13.294;2023-05-21T15:46:15;9.60;;;5.78;;
47089;SDS011;32840;52.516;13.294;2023-05-21T15:49:00;8.18;;;5.80;;
47089;SDS011;32840;52.516;13.294;2023-05-21T15:51:48;10.00;;;5.72;;
47089;SDS011;32840;52.516;13.294;2023-05-21T15:54:32;10.07;;;5.75;;
47089;SDS011;32840;52.516;13.294;2023-05-21T15:57:17;7.28;;;5.95;;
47089;SDS011;32840;52.516;13.294;2023-05-21T16:00:04;10.00;;;5.55;;
47089;SDS011;32840;52.516;13.294;2023-05-21T16:02:49;9.63;;;6.38;;
47089;SDS011;32840;52.516;13.294;2023-05-21T16:05:34;11.00;;;5.53;;
47089;SDS011;32840;52.516;13.294;2023-05-21T16:08:19;9.00;;;5.88;;
47089;SDS011;32840;52.516;13.294;2023-05-21T16:11:04;8.70;;;5.10;;
47089;SDS011;32840;52.516;13.294;2023-05-21T16:13:49;7.97;;;5.28;;
47089;SDS011;32840;52.516;13.294;2023-05-21T16:16:33;9.70;;;5.05;;
47089;SDS011;32840;52.516;13.294;2023-05-21T16:19:18;10.30;;;5.40;;